createdAt,value
2018-07-04T00:01:26.933Z,21.80
2018-07-04T00:04:06.054Z,21.90
2018-07-04T00:06:45.190Z,21.96
2018-07-04T00:09:24.384Z,21.99
2018-07-04T00:12:03.470Z,22.03
2018-07-04T00:14:42.670Z,22.03
2018-07-04T00:17:21.762Z,22.07
2018-07-04T00:20:00.929Z,22.11
2018-07-04T00:22:40.024Z,22.21
2018-07-04T00:25:19.178Z,22.35
2018-07-04T00:27:58.533Z,22.42
2018-07-04T00:30:37.699Z,22.45
2018-07-04T00:33:16.928Z,22.43
2018-07-04T00:35:56.105Z,22.41
2018-07-04T00:38:35.190Z,22.38
2018-07-04T00:41:14.404Z,22.40
2018-07-04T00:43:53.621Z,22.32
2018-07-04T00:46:32.742Z,22.29
2018-07-04T00:49:11.817Z,22.29
2018-07-04T00:51:50.938Z,22.27
2018-07-04T00:54:30.609Z,22.26
2018-07-04T00:57:09.722Z,22.29
2018-07-04T00:59:48.800Z,22.21
2018-07-04T01:02:28.045Z,22.09
2018-07-04T01:05:07.351Z,22.06
2018-07-04T01:07:46.599Z,22.02
2018-07-04T01:10:25.823Z,21.94
2018-07-04T01:13:04.927Z,22.00
2018-07-04T01:15:44.128Z,22.05
2018-07-04T01:18:23.211Z,22.09
2018-07-04T01:21:02.392Z,21.98
2018-07-04T01:23:41.547Z,21.92
2018-07-04T01:26:20.609Z,21.95
2018-07-04T01:28:59.801Z,21.95
2018-07-04T01:31:38.966Z,21.89
2018-07-04T01:34:18.147Z,21.84
2018-07-04T01:36:57.345Z,21.81
2018-07-04T01:39:36.672Z,21.75
2018-07-04T01:42:16.158Z,21.67
2018-07-04T01:44:55.387Z,21.64
2018-07-04T01:47:34.543Z,21.61
2018-07-04T01:50:13.704Z,21.47
2018-07-04T01:52:52.854Z,21.46
2018-07-04T01:55:32.112Z,21.51
2018-07-04T01:58:11.395Z,21.43
2018-07-04T02:00:50.486Z,21.25
2018-07-04T02:06:02.210Z,21.22
2018-07-04T02:08:41.304Z,21.20
2018-07-04T02:11:20.504Z,21.08
2018-07-04T02:13:59.553Z,21.00
2018-07-04T02:16:38.543Z,20.95
2018-07-04T02:19:17.811Z,20.90
2018-07-04T02:21:56.980Z,20.94
2018-07-04T02:24:36.259Z,20.92
2018-07-04T02:27:15.596Z,20.95
2018-07-04T02:29:54.920Z,20.99
2018-07-04T02:32:34.149Z,20.98
2018-07-04T02:35:13.293Z,20.99
2018-07-04T02:37:52.431Z,21.01
2018-07-04T02:40:31.459Z,20.98
2018-07-04T02:43:10.584Z,20.98
2018-07-04T02:45:49.721Z,20.98
2018-07-04T02:48:28.932Z,21.01
2018-07-04T02:51:08.175Z,21.04
2018-07-04T02:53:47.912Z,21.10
2018-07-04T02:56:27.376Z,21.13
2018-07-04T02:59:06.517Z,21.17
2018-07-04T03:01:45.825Z,21.14
2018-07-04T03:04:25.816Z,21.15
2018-07-04T03:07:05.136Z,21.17
2018-07-04T03:09:44.304Z,21.16
2018-07-04T03:12:23.557Z,21.18
2018-07-04T03:15:02.742Z,21.18
2018-07-04T03:17:41.758Z,21.21
2018-07-04T03:20:20.896Z,21.23
2018-07-04T03:22:59.876Z,21.23
2018-07-04T03:25:38.941Z,21.20
2018-07-04T03:28:18.051Z,21.21
2018-07-04T03:30:57.272Z,21.24
2018-07-04T03:33:36.433Z,21.22
2018-07-04T03:36:15.593Z,21.17
2018-07-04T03:38:54.719Z,21.08
2018-07-04T03:41:33.917Z,21.06
2018-07-04T03:44:13.037Z,21.04
2018-07-04T03:46:52.466Z,20.99
2018-07-04T03:49:31.574Z,20.99
2018-07-04T03:52:10.867Z,21.00
2018-07-04T03:54:49.961Z,20.98
2018-07-04T03:57:29.199Z,20.90
2018-07-04T04:00:08.427Z,20.81
2018-07-04T04:02:47.659Z,20.57
2018-07-04T04:05:26.976Z,20.38
2018-07-04T04:08:06.432Z,20.36
2018-07-04T04:10:45.669Z,20.48
2018-07-04T04:13:25.136Z,20.58
2018-07-04T04:16:04.292Z,20.65
2018-07-04T04:18:43.392Z,20.75
2018-07-04T04:21:22.564Z,20.83
2018-07-04T04:24:01.595Z,20.99
2018-07-04T04:26:40.895Z,21.08
2018-07-04T04:29:20.042Z,21.07
2018-07-04T04:31:59.236Z,21.07
2018-07-04T04:34:38.676Z,21.13
2018-07-04T04:37:17.944Z,21.16
2018-07-04T04:39:57.326Z,21.20
2018-07-04T04:42:36.587Z,21.22
2018-07-04T04:45:15.891Z,21.12
2018-07-04T04:47:55.188Z,21.03
2018-07-04T04:50:34.305Z,21.09
2018-07-04T04:53:13.510Z,21.09
2018-07-04T04:55:52.683Z,21.15
2018-07-04T04:58:31.851Z,21.35
2018-07-04T05:01:10.983Z,21.43
2018-07-04T05:03:50.086Z,21.45
2018-07-04T05:06:29.323Z,21.45
2018-07-04T05:09:08.525Z,21.54
2018-07-04T05:11:48.349Z,21.65
2018-07-04T05:14:27.380Z,21.87
2018-07-04T05:17:06.632Z,22.09
2018-07-04T05:19:45.862Z,22.12
2018-07-04T05:22:25.052Z,22.22
2018-07-04T05:25:04.171Z,22.39
2018-07-04T05:27:43.337Z,22.58
2018-07-04T05:30:22.512Z,22.60
2018-07-04T05:33:01.727Z,22.67
2018-07-04T05:35:41.027Z,22.78
2018-07-04T05:38:20.218Z,22.96
2018-07-04T05:40:59.527Z,23.14
2018-07-04T05:43:38.701Z,23.34
2018-07-04T05:46:17.796Z,23.34
2018-07-04T05:48:56.982Z,23.33
2018-07-04T05:51:36.159Z,23.38
2018-07-04T05:54:15.312Z,23.48
2018-07-04T05:56:54.462Z,23.51
2018-07-04T05:59:33.787Z,23.64
2018-07-04T06:02:13.114Z,23.70
2018-07-04T06:04:52.305Z,23.65
2018-07-04T06:07:31.552Z,23.62
2018-07-04T06:10:10.684Z,23.76
2018-07-04T06:12:49.841Z,23.82
2018-07-04T06:15:29.082Z,23.90
2018-07-04T06:18:08.296Z,24.01
2018-07-04T06:20:47.551Z,24.00
2018-07-04T06:23:26.683Z,24.10
2018-07-04T06:26:05.808Z,24.20
2018-07-04T06:28:44.820Z,24.37
2018-07-04T06:31:24.028Z,24.56
2018-07-04T06:34:03.245Z,24.58
2018-07-04T06:36:42.663Z,24.63
2018-07-04T06:39:09.654Z,24.69
2018-07-04T06:41:36.501Z,24.80
2018-07-04T06:44:03.414Z,24.96
2018-07-04T06:49:03.579Z,25.28
2018-07-04T06:51:30.702Z,25.44
2018-07-04T06:53:57.566Z,25.47
2018-07-04T06:56:25.829Z,25.27
2018-07-04T06:58:52.894Z,25.36
2018-07-04T07:01:19.775Z,25.45
2018-07-04T07:03:58.943Z,25.58
2018-07-04T07:06:38.174Z,25.62
2018-07-04T07:09:17.450Z,25.67
2018-07-04T07:11:56.749Z,25.61
2018-07-04T07:14:35.903Z,25.44
2018-07-04T07:17:15.016Z,25.65
2018-07-04T07:19:54.333Z,25.98
2018-07-04T07:22:33.414Z,26.16
2018-07-04T07:25:12.486Z,26.17
2018-07-04T07:27:51.626Z,26.18
2018-07-04T07:30:30.703Z,26.41
2018-07-04T07:33:09.996Z,26.97
2018-07-04T07:35:49.213Z,27.31
2018-07-04T07:38:28.336Z,27.27
2018-07-04T07:41:07.734Z,27.37
2018-07-04T07:43:46.859Z,27.64
2018-07-04T07:46:26.000Z,27.76
2018-07-04T07:49:05.273Z,28.17
2018-07-04T07:51:44.498Z,28.33
2018-07-04T07:54:23.841Z,28.58
2018-07-04T07:57:02.946Z,28.67
2018-07-04T07:59:42.113Z,28.70
2018-07-04T08:02:21.207Z,29.18
2018-07-04T08:05:00.553Z,29.04
2018-07-04T08:07:33.391Z,29.39
2018-07-04T08:10:12.601Z,29.45
2018-07-04T08:12:45.378Z,29.64
2018-07-04T08:15:18.262Z,29.61
2018-07-04T08:17:51.295Z,29.68
2018-07-04T08:20:30.573Z,29.60
2018-07-04T08:23:09.811Z,29.21
2018-07-04T08:25:48.889Z,29.17
2018-07-04T08:28:28.144Z,29.54
2018-07-04T08:31:01.200Z,29.70
2018-07-04T08:33:40.375Z,29.82
2018-07-04T08:36:19.618Z,30.03
2018-07-04T08:38:59.037Z,29.63
2018-07-04T08:41:38.234Z,29.36
2018-07-04T08:44:17.351Z,29.55
2018-07-04T08:46:56.457Z,29.54
2018-07-04T08:49:35.683Z,29.60
2018-07-04T08:52:14.952Z,29.80
2018-07-04T08:54:54.181Z,29.55
2018-07-04T08:57:27.289Z,29.44
2018-07-04T09:00:06.425Z,29.77
2018-07-04T09:02:39.217Z,30.23
2018-07-04T09:05:11.930Z,30.55
2018-07-04T09:07:44.880Z,30.41
2018-07-04T09:10:24.074Z,30.45
2018-07-04T09:13:03.359Z,30.30
2018-07-04T09:15:42.642Z,30.47
2018-07-04T09:18:15.353Z,30.62
2018-07-04T09:20:48.258Z,30.91
2018-07-04T09:23:27.465Z,30.97
2018-07-04T09:26:06.581Z,31.14
2018-07-04T09:28:45.714Z,31.03
2018-07-04T09:31:24.970Z,30.91
2018-07-04T09:34:03.988Z,31.18
2018-07-04T09:36:43.133Z,31.55
2018-07-04T09:39:22.431Z,31.85
2018-07-04T09:42:01.822Z,32.16
2018-07-04T09:44:41.038Z,32.04
2018-07-04T09:47:20.439Z,32.07
2018-07-04T09:49:59.627Z,31.74
2018-07-04T09:52:38.683Z,31.81
2018-07-04T09:55:17.837Z,32.09
2018-07-04T09:57:57.095Z,31.67
2018-07-04T10:00:36.425Z,31.47
2018-07-04T10:03:15.728Z,31.53
2018-07-04T10:05:54.939Z,31.36
2018-07-04T10:08:34.264Z,31.79
2018-07-04T10:11:13.570Z,32.00
2018-07-04T10:13:52.831Z,32.15
2018-07-04T10:16:32.066Z,32.18
2018-07-04T10:19:11.037Z,32.30
2018-07-04T10:21:50.213Z,32.41
2018-07-04T10:24:29.365Z,32.34
2018-07-04T10:27:08.787Z,32.46
2018-07-04T10:29:48.122Z,32.42
2018-07-04T10:32:27.549Z,32.08
2018-07-04T10:35:06.648Z,31.82
2018-07-04T10:37:45.932Z,31.85
2018-07-04T10:40:25.405Z,31.89
2018-07-04T10:43:04.697Z,32.00
2018-07-04T10:45:44.120Z,32.72
2018-07-04T10:48:23.518Z,32.31
2018-07-04T10:51:02.776Z,32.02
2018-07-04T10:53:42.125Z,32.10
2018-07-04T10:56:21.269Z,32.33
2018-07-04T10:59:00.554Z,32.67
2018-07-04T11:01:39.896Z,33.23
2018-07-04T11:04:19.469Z,33.32
2018-07-04T11:06:58.762Z,33.30
2018-07-04T11:09:38.208Z,33.51
2018-07-04T11:12:17.971Z,33.83
2018-07-04T11:14:57.095Z,33.96
2018-07-04T11:17:36.294Z,33.91
2018-07-04T11:20:15.479Z,33.58
2018-07-04T11:22:54.672Z,33.11
2018-07-04T11:25:33.888Z,33.60
2018-07-04T11:28:13.142Z,33.81
2018-07-04T11:30:52.601Z,34.19
2018-07-04T11:33:31.665Z,34.25
2018-07-04T11:36:10.917Z,34.52
2018-07-04T11:38:50.340Z,34.56
2018-07-04T11:41:29.565Z,34.72
2018-07-04T11:44:08.825Z,34.65
2018-07-04T11:46:35.742Z,34.72
2018-07-04T11:49:02.650Z,34.85
2018-07-04T11:51:29.831Z,34.90
2018-07-04T11:53:56.783Z,34.74
2018-07-04T11:56:23.829Z,34.61
2018-07-04T11:58:50.978Z,34.60
2018-07-04T12:01:17.986Z,34.60
2018-07-04T12:03:57.108Z,34.58
2018-07-04T12:06:36.332Z,34.34
2018-07-04T12:09:03.235Z,34.61
2018-07-04T12:11:30.258Z,34.81
2018-07-04T12:13:57.183Z,34.87
2018-07-04T12:16:24.275Z,35.00
2018-07-04T12:18:51.354Z,35.08
2018-07-04T12:21:18.289Z,35.28
2018-07-04T12:23:45.215Z,35.41
2018-07-04T12:26:12.199Z,35.31
2018-07-04T12:28:39.110Z,35.18
2018-07-04T12:31:06.096Z,34.90
2018-07-04T12:33:32.963Z,34.85
2018-07-04T12:36:00.000Z,34.75
2018-07-04T12:38:26.952Z,34.91
2018-07-04T12:40:54.018Z,34.86
2018-07-04T12:43:20.976Z,34.94
2018-07-04T12:45:47.908Z,34.89
2018-07-04T12:48:14.949Z,35.27
2018-07-04T12:50:42.171Z,35.32
2018-07-04T12:53:09.392Z,35.41
2018-07-04T12:55:48.469Z,35.01
2018-07-04T12:58:27.757Z,35.10
2018-07-04T13:01:07.044Z,34.91
2018-07-04T13:03:46.236Z,34.70
2018-07-04T13:06:25.593Z,34.57
2018-07-04T13:09:05.094Z,34.63
2018-07-04T13:11:44.371Z,34.79
2018-07-04T13:14:23.974Z,34.99
2018-07-04T13:17:03.175Z,34.79
2018-07-04T13:19:42.432Z,34.77
2018-07-04T13:22:21.678Z,35.19
2018-07-04T13:25:00.802Z,35.26
2018-07-04T13:27:39.858Z,35.31
2018-07-04T13:30:19.030Z,35.37
2018-07-04T13:32:58.332Z,35.42
2018-07-04T13:35:37.448Z,35.38
2018-07-04T13:38:18.601Z,34.55
2018-07-04T13:40:57.842Z,34.18
2018-07-04T13:43:37.069Z,34.31
2018-07-04T13:46:16.514Z,34.61
2018-07-04T13:48:55.723Z,34.43
2018-07-04T13:51:34.934Z,34.43
2018-07-04T13:54:13.997Z,34.52
2018-07-04T13:56:53.781Z,34.76
2018-07-04T13:59:32.836Z,34.83
2018-07-04T14:02:11.994Z,35.24
2018-07-04T14:04:51.108Z,35.34
2018-07-04T14:07:30.092Z,35.50
2018-07-04T14:10:09.394Z,35.45
2018-07-04T14:12:48.685Z,35.51
2018-07-04T14:15:27.975Z,35.54
2018-07-04T14:18:07.171Z,35.65
2018-07-04T14:20:46.504Z,35.85
2018-07-04T14:23:25.641Z,36.09
2018-07-04T14:26:04.741Z,36.13
2018-07-04T14:28:43.895Z,36.17
2018-07-04T14:35:05.197Z,36.16
2018-07-04T14:37:44.743Z,36.09
2018-07-04T14:40:23.839Z,35.81
2018-07-04T14:43:03.115Z,35.32
2018-07-04T14:45:42.424Z,35.18
2018-07-04T14:48:22.293Z,34.78
2018-07-04T14:51:01.551Z,34.54
2018-07-04T14:53:40.843Z,34.34
2018-07-04T14:56:20.075Z,34.37
2018-07-04T14:58:59.314Z,34.35
2018-07-04T15:01:38.640Z,34.14
2018-07-04T15:04:17.959Z,34.11
2018-07-04T15:06:57.371Z,34.07
2018-07-04T15:09:36.602Z,34.06
2018-07-04T15:12:15.860Z,33.98
2018-07-04T15:14:55.012Z,33.86
2018-07-04T15:17:34.404Z,33.82
2018-07-04T15:20:13.759Z,33.73
2018-07-04T15:22:53.331Z,33.70
2018-07-04T15:25:32.575Z,33.74
2018-07-04T15:28:11.683Z,33.69
2018-07-04T15:30:50.866Z,33.57
2018-07-04T15:33:30.134Z,33.58
2018-07-04T15:36:09.458Z,33.51
2018-07-04T15:38:48.777Z,33.52
2018-07-04T15:41:28.293Z,33.45
2018-07-04T15:44:07.633Z,33.42
2018-07-04T15:46:47.229Z,33.38
2018-07-04T15:49:26.335Z,33.33
2018-07-04T15:52:05.833Z,33.30
2018-07-04T15:54:44.872Z,33.22
2018-07-04T15:57:24.266Z,33.19
2018-07-04T16:00:03.492Z,33.34
2018-07-04T16:02:42.729Z,33.32
2018-07-04T16:05:21.919Z,33.29
2018-07-04T16:08:01.084Z,33.23
2018-07-04T16:10:40.838Z,33.34
2018-07-04T16:13:20.168Z,33.25
2018-07-04T16:15:59.643Z,32.99
2018-07-04T16:18:38.853Z,32.75
2018-07-04T16:21:18.158Z,32.56
2018-07-04T16:23:57.560Z,32.46
2018-07-04T16:26:36.649Z,32.37
2018-07-04T16:29:15.809Z,32.38
2018-07-04T16:31:54.983Z,32.42
2018-07-04T16:34:34.266Z,32.65
2018-07-04T16:37:13.598Z,32.63
2018-07-04T16:39:53.107Z,32.69
2018-07-04T16:42:32.655Z,32.59
2018-07-04T16:45:11.990Z,32.58
2018-07-04T16:47:51.224Z,32.45
2018-07-04T16:50:30.805Z,32.34
2018-07-04T16:53:10.090Z,32.08
2018-07-04T16:55:49.304Z,32.03
2018-07-04T16:58:28.413Z,31.82
2018-07-04T17:01:07.634Z,31.65
2018-07-04T17:03:47.210Z,31.54
2018-07-04T17:06:26.273Z,31.48
2018-07-04T17:09:05.450Z,31.36
2018-07-04T17:11:44.953Z,31.15
2018-07-04T17:14:24.132Z,31.11
2018-07-04T17:17:03.411Z,30.97
2018-07-04T17:19:42.700Z,30.85
2018-07-04T17:22:22.092Z,30.69
2018-07-04T17:25:01.405Z,30.58
2018-07-04T17:27:40.670Z,30.43
2018-07-04T17:30:20.040Z,30.37
2018-07-04T17:32:59.314Z,30.25
2018-07-04T17:35:38.488Z,30.19
2018-07-04T17:38:17.639Z,30.22
2018-07-04T17:40:56.851Z,30.21
2018-07-04T17:43:36.206Z,30.21
2018-07-04T17:46:15.426Z,30.15
2018-07-04T17:48:54.624Z,30.17
2018-07-04T17:51:33.806Z,30.11
2018-07-04T17:54:12.910Z,30.10
2018-07-04T17:56:52.176Z,30.06
2018-07-04T17:59:31.406Z,30.04
2018-07-04T18:02:10.719Z,30.01
2018-07-04T18:04:49.863Z,29.96
2018-07-04T18:07:29.198Z,29.99
2018-07-04T18:10:08.354Z,30.08
2018-07-04T18:12:47.705Z,30.01
2018-07-04T18:15:27.033Z,30.02
2018-07-04T18:18:06.108Z,29.97
2018-07-04T18:20:45.356Z,29.93
2018-07-04T18:23:24.684Z,29.87
2018-07-04T18:26:04.107Z,29.64
2018-07-04T18:28:43.319Z,29.34
2018-07-04T18:31:22.660Z,29.13
2018-07-04T18:34:01.736Z,28.82
2018-07-04T18:36:40.914Z,28.65
2018-07-04T18:39:21.115Z,28.59
2018-07-04T18:42:00.230Z,28.65
2018-07-04T18:44:39.311Z,28.74
2018-07-04T18:47:18.543Z,28.63
2018-07-04T18:49:58.082Z,28.43
2018-07-04T18:52:37.588Z,28.37
2018-07-04T18:55:16.916Z,28.31
2018-07-04T18:57:56.146Z,28.23
2018-07-04T19:00:35.216Z,28.16
2018-07-04T19:03:14.362Z,28.13
2018-07-04T19:05:53.427Z,28.13
2018-07-04T19:08:32.605Z,28.12
2018-07-04T19:11:11.839Z,28.05
2018-07-04T19:13:50.926Z,27.91
2018-07-04T19:16:30.371Z,27.80
2018-07-04T19:19:09.714Z,27.77
2018-07-04T19:21:49.029Z,27.81
2018-07-04T19:24:28.500Z,27.70
2018-07-04T19:27:07.588Z,27.53
2018-07-04T19:29:46.838Z,27.43
2018-07-04T19:32:26.195Z,27.36
2018-07-04T19:35:05.327Z,27.37
2018-07-04T19:37:44.504Z,27.26
2018-07-04T19:40:23.687Z,27.20
2018-07-04T19:43:02.998Z,27.10
2018-07-04T19:45:42.430Z,27.11
2018-07-04T19:48:21.560Z,27.16
2018-07-04T19:51:00.809Z,27.23
2018-07-04T19:53:40.157Z,27.20
2018-07-04T19:56:19.444Z,27.19
2018-07-04T19:58:58.850Z,27.18
2018-07-04T20:01:38.036Z,27.23
2018-07-04T20:04:17.154Z,27.25
2018-07-04T20:06:56.343Z,27.27
2018-07-04T20:09:35.391Z,27.21
2018-07-04T20:12:14.515Z,27.18
2018-07-04T20:14:53.622Z,27.17
2018-07-04T20:17:32.845Z,27.16
2018-07-04T20:20:12.066Z,27.21
2018-07-04T20:22:51.241Z,27.23
2018-07-04T20:25:30.581Z,27.13
2018-07-04T20:28:09.809Z,26.87
2018-07-04T20:30:48.998Z,26.73
2018-07-04T20:33:28.203Z,26.68
2018-07-04T20:36:07.303Z,26.78
2018-07-04T20:38:46.638Z,27.02
2018-07-04T20:41:25.836Z,27.13
2018-07-04T20:44:05.048Z,27.32
2018-07-04T20:46:44.244Z,27.25
2018-07-04T20:49:23.413Z,27.14
2018-07-04T20:52:02.772Z,27.10
2018-07-04T20:54:42.256Z,27.12
2018-07-04T20:57:21.409Z,26.76
2018-07-04T21:00:00.859Z,26.53
2018-07-04T21:02:39.964Z,26.57
2018-07-04T21:05:19.005Z,26.47
2018-07-04T21:07:58.097Z,26.25
2018-07-04T21:10:38.194Z,26.22
2018-07-04T21:13:17.399Z,26.32
2018-07-04T21:15:56.780Z,26.47
2018-07-04T21:18:36.076Z,26.39
2018-07-04T21:21:15.229Z,26.24
2018-07-04T21:23:54.392Z,25.88
2018-07-04T21:26:33.746Z,25.53
2018-07-04T21:29:13.087Z,24.93
2018-07-04T21:31:52.526Z,24.35
2018-07-04T21:34:31.865Z,23.89
2018-07-04T21:37:11.046Z,23.23
2018-07-04T21:39:50.361Z,22.70
2018-07-04T21:42:29.712Z,22.25
2018-07-04T21:45:08.925Z,21.93
2018-07-04T21:47:48.315Z,21.82
2018-07-04T21:50:27.663Z,21.81
2018-07-04T21:53:06.682Z,21.85
2018-07-04T21:55:45.976Z,21.77
2018-07-04T21:58:25.556Z,21.74
2018-07-04T22:01:04.806Z,21.83
2018-07-04T22:03:44.195Z,21.95
2018-07-04T22:06:23.309Z,21.95
2018-07-04T22:09:02.590Z,21.91
2018-07-04T22:11:41.628Z,21.79
2018-07-04T22:14:20.717Z,21.72
2018-07-04T22:16:59.965Z,21.63
2018-07-04T22:19:39.189Z,21.51
2018-07-04T22:22:18.651Z,21.14
2018-07-04T22:24:57.854Z,20.77
2018-07-04T22:27:37.141Z,20.66
2018-07-04T22:30:16.295Z,20.83
2018-07-04T22:32:55.507Z,21.10
2018-07-04T22:35:34.908Z,21.10
2018-07-04T22:38:14.287Z,21.10
2018-07-04T22:40:53.575Z,21.19
2018-07-04T22:43:32.762Z,20.97
2018-07-04T22:46:11.942Z,20.75
2018-07-04T22:48:51.082Z,20.85
2018-07-04T22:51:30.360Z,20.89
2018-07-04T22:54:09.608Z,20.95
2018-07-04T22:56:48.651Z,21.02
2018-07-04T22:59:27.714Z,21.04
2018-07-04T23:02:06.792Z,21.12
2018-07-04T23:04:45.976Z,21.10
2018-07-04T23:07:25.267Z,21.18
2018-07-04T23:10:04.553Z,21.34
2018-07-04T23:12:43.785Z,21.50
2018-07-04T23:15:22.846Z,21.62
2018-07-04T23:18:01.873Z,21.61
2018-07-04T23:20:41.266Z,21.53
2018-07-04T23:23:20.430Z,21.49
2018-07-04T23:25:59.591Z,21.46
2018-07-04T23:28:38.841Z,21.52
2018-07-04T23:31:18.076Z,21.56
2018-07-04T23:33:57.281Z,21.66
2018-07-04T23:36:36.352Z,21.58
2018-07-04T23:39:15.543Z,21.46
2018-07-04T23:41:54.656Z,21.29
2018-07-04T23:44:33.846Z,21.32
2018-07-04T23:47:13.163Z,21.28
2018-07-04T23:49:52.302Z,21.22
2018-07-04T23:52:31.462Z,21.18
2018-07-04T23:55:10.749Z,21.07
2018-07-04T23:57:49.905Z,21.01
